Chicago, Illinois
Traffic Map
Current Weather Conditions
Chicago, Illinois
Clear
Clear
52°
Feels Like: 52°
Wind Chill: 52° Ceiling: Unl
Heat Index: 52° Visibility: 10mi
Dew Point: 36° Wind: 7mph
Humidity: 54% Direction: 90° (E)
Pressure: 30.29in Gusts: 0mph
Raw Report DataKMDW 222153Z 09006KT 10SM CLR 11/02 A3029 RMK AO2 SLP259 T01110022
Traffic Incident Summary
Active as of:
Severity:
Category:
InformationThere was an issue retrieving the traffic information for this location. Please try a different location or try again shortly.
Advertisements
Track Severe Weather on mobile